Saint Joseph, Illinois
Current Conditions -  °F | °C
As of 2:53 PM on Thursday 23 Oct 2014 (Local Time) from KCMI Reporting Station
Clear Clear  
Wind Chill: 60°   Ceiling: Unl
Heat Index: 60°   Visibility: 10mi
Dew Point: 42°   Wind: 12mph
Humidity: 51%   Direction: 240°WSW
Pressure: 30.15"   Gusts: NA
Location:  40.11°N, 88.04°W
Report Text: KCMI 231953Z AUTO 24010KT 10SM CLR 16/06 A3015 RMK AO2 SLP212 T01560056 $
Loading
Personal Weather Stations






























Interactive Weather Map
Tropical Storm Tracking
New forecast layout! Learn more

10-Day Weather Forecast

Advertisements
Track Severe Weather on mobile